sensor_id;sensor_type;location;lat;lon;timestamp;P1;durP1;ratioP1;P2;durP2;ratioP2
36443;SDS011;24692;45.642;13.806;2023-03-21T00:00:19;33.33;;;22.43;;
36443;SDS011;24692;45.642;13.806;2023-03-21T00:02:45;33.67;;;22.13;;
36443;SDS011;24692;45.642;13.806;2023-03-21T00:05:11;36.20;;;21.97;;
36443;SDS011;24692;45.642;13.806;2023-03-21T00:07:36;33.27;;;21.83;;
36443;SDS011;24692;45.642;13.806;2023-03-21T00:10:02;34.27;;;21.47;;
36443;SDS011;24692;45.642;13.806;2023-03-21T00:12:28;31.87;;;21.80;;
36443;SDS011;24692;45.642;13.806;2023-03-21T00:14:59;34.03;;;22.13;;
36443;SDS011;24692;45.642;13.806;2023-03-21T00:17:29;35.70;;;22.53;;
36443;SDS011;24692;45.642;13.806;2023-03-21T00:19:56;32.83;;;21.40;;
36443;SDS011;24692;45.642;13.806;2023-03-21T00:22:27;33.47;;;22.40;;
36443;SDS011;24692;45.642;13.806;2023-03-21T00:24:53;35.27;;;23.47;;
36443;SDS011;24692;45.642;13.806;2023-03-21T00:27:19;37.13;;;23.83;;
36443;SDS011;24692;45.642;13.806;2023-03-21T00:29:45;37.43;;;24.13;;
36443;SDS011;24692;45.642;13.806;2023-03-21T00:32:13;41.00;;;25.60;;
36443;SDS011;24692;45.642;13.806;2023-03-21T00:34:42;38.27;;;24.87;;
36443;SDS011;24692;45.642;13.806;2023-03-21T00:37:08;38.37;;;24.27;;
36443;SDS011;24692;45.642;13.806;2023-03-21T00:39:37;35.53;;;23.67;;
36443;SDS011;24692;45.642;13.806;2023-03-21T00:42:03;37.77;;;23.67;;
36443;SDS011;24692;45.642;13.806;2023-03-21T00:44:28;40.17;;;24.23;;
36443;SDS011;24692;45.642;13.806;2023-03-21T00:47:00;34.73;;;23.13;;
36443;SDS011;24692;45.642;13.806;2023-03-21T00:49:27;37.33;;;24.03;;
36443;SDS011;24692;45.642;13.806;2023-03-21T00:51:57;32.97;;;22.37;;
36443;SDS011;24692;45.642;13.806;2023-03-21T00:54:27;33.07;;;22.37;;
36443;SDS011;24692;45.642;13.806;2023-03-21T00:56:53;39.00;;;24.53;;
36443;SDS011;24692;45.642;13.806;2023-03-21T00:59:19;39.47;;;23.87;;
36443;SDS011;24692;45.642;13.806;2023-03-21T01:01:44;39.43;;;25.67;;
36443;SDS011;24692;45.642;13.806;2023-03-21T01:04:11;39.80;;;24.87;;
36443;SDS011;24692;45.642;13.806;2023-03-21T01:06:39;39.00;;;23.93;;
36443;SDS011;24692;45.642;13.806;2023-03-21T01:09:09;38.50;;;25.03;;
36443;SDS011;24692;45.642;13.806;2023-03-21T01:11:40;39.80;;;25.53;;
36443;SDS011;24692;45.642;13.806;2023-03-21T01:14:06;38.87;;;25.23;;
36443;SDS011;24692;45.642;13.806;2023-03-21T01:16:32;39.67;;;24.70;;
36443;SDS011;24692;45.642;13.806;2023-03-21T01:18:58;39.83;;;24.50;;
36443;SDS011;24692;45.642;13.806;2023-03-21T01:21:24;36.47;;;24.33;;
36443;SDS011;24692;45.642;13.806;2023-03-21T01:23:50;37.67;;;24.03;;
36443;SDS011;24692;45.642;13.806;2023-03-21T01:26:16;34.47;;;23.17;;
36443;SDS011;24692;45.642;13.806;2023-03-21T01:28:42;36.40;;;24.37;;
36443;SDS011;24692;45.642;13.806;2023-03-21T01:31:09;35.23;;;24.03;;
36443;SDS011;24692;45.642;13.806;2023-03-21T01:33:36;34.60;;;23.13;;
36443;SDS011;24692;45.642;13.806;2023-03-21T01:36:02;34.80;;;22.90;;
36443;SDS011;24692;45.642;13.806;2023-03-21T01:38:28;32.97;;;21.43;;
36443;SDS011;24692;45.642;13.806;2023-03-21T01:40:54;32.77;;;22.10;;
36443;SDS011;24692;45.642;13.806;2023-03-21T01:43:22;32.33;;;22.57;;
36443;SDS011;24692;45.642;13.806;2023-03-21T01:46:37;31.97;;;21.97;;
36443;SDS011;24692;45.642;13.806;2023-03-21T01:48:45;28.60;;;20.43;;
36443;SDS011;24692;45.642;13.806;2023-03-21T01:51:17;34.43;;;23.17;;
36443;SDS011;24692;45.642;13.806;2023-03-21T01:53:43;36.13;;;23.73;;
36443;SDS011;24692;45.642;13.806;2023-03-21T01:56:12;34.93;;;22.37;;
36443;SDS011;24692;45.642;13.806;2023-03-21T01:58:48;29.40;;;20.70;;
36443;SDS011;24692;45.642;13.806;2023-03-21T02:01:16;42.27;;;25.20;;
36443;SDS011;24692;45.642;13.806;2023-03-21T02:03:43;34.50;;;23.77;;
36443;SDS011;24692;45.642;13.806;2023-03-21T02:07:01;36.60;;;24.63;;
36443;SDS011;24692;45.642;13.806;2023-03-21T02:09:05;39.10;;;24.30;;
36443;SDS011;24692;45.642;13.806;2023-03-21T02:11:35;36.83;;;24.77;;
36443;SDS011;24692;45.642;13.806;2023-03-21T02:14:02;36.47;;;23.87;;
36443;SDS011;24692;45.642;13.806;2023-03-21T02:24:38;32.87;;;22.90;;
36443;SDS011;24692;45.642;13.806;2023-03-21T02:27:12;34.00;;;23.70;;
36443;SDS011;24692;45.642;13.806;2023-03-21T02:36:01;29.07;;;19.63;;
36443;SDS011;24692;45.642;13.806;2023-03-21T02:38:50;29.30;;;20.50;;
36443;SDS011;24692;45.642;13.806;2023-03-21T02:41:32;28.67;;;19.63;;
36443;SDS011;24692;45.642;13.806;2023-03-21T02:44:05;29.40;;;20.33;;
36443;SDS011;24692;45.642;13.806;2023-03-21T02:47:09;26.23;;;19.43;;
36443;SDS011;24692;45.642;13.806;2023-03-21T02:52:23;25.17;;;18.63;;
36443;SDS011;24692;45.642;13.806;2023-03-21T02:54:52;26.57;;;19.93;;
36443;SDS011;24692;45.642;13.806;2023-03-21T02:57:20;25.03;;;19.13;;
36443;SDS011;24692;45.642;13.806;2023-03-21T02:59:47;27.37;;;19.67;;
36443;SDS011;24692;45.642;13.806;2023-03-21T03:02:14;29.33;;;19.73;;
36443;SDS011;24692;45.642;13.806;2023-03-21T03:04:43;25.83;;;18.23;;
36443;SDS011;24692;45.642;13.806;2023-03-21T03:12:30;27.60;;;18.97;;
36443;SDS011;24692;45.642;13.806;2023-03-21T03:26:38;23.83;;;17.70;;
36443;SDS011;24692;45.642;13.806;2023-03-21T03:29:11;24.50;;;18.63;;
36443;SDS011;24692;45.642;13.806;2023-03-21T03:31:42;24.30;;;17.43;;
36443;SDS011;24692;45.642;13.806;2023-03-21T03:34:23;24.10;;;17.30;;
36443;SDS011;24692;45.642;13.806;2023-03-21T03:36:55;24.33;;;16.70;;
36443;SDS011;24692;45.642;13.806;2023-03-21T03:39:24;23.27;;;16.43;;
36443;SDS011;24692;45.642;13.806;2023-03-21T03:42:07;26.00;;;17.33;;
36443;SDS011;24692;45.642;13.806;2023-03-21T03:44:40;26.50;;;16.77;;
36443;SDS011;24692;45.642;13.806;2023-03-21T03:47:10;23.27;;;17.20;;
36443;SDS011;24692;45.642;13.806;2023-03-21T03:49:42;23.67;;;17.77;;
36443;SDS011;24692;45.642;13.806;2023-03-21T03:52:15;25.30;;;17.03;;
36443;SDS011;24692;45.642;13.806;2023-03-21T03:54:45;23.37;;;16.67;;
36443;SDS011;24692;45.642;13.806;2023-03-21T03:57:13;19.00;;;15.67;;
36443;SDS011;24692;45.642;13.806;2023-03-21T03:59:40;24.60;;;16.27;;
36443;SDS011;24692;45.642;13.806;2023-03-21T04:02:08;21.50;;;16.37;;
36443;SDS011;24692;45.642;13.806;2023-03-21T04:04:35;20.53;;;15.57;;
36443;SDS011;24692;45.642;13.806;2023-03-21T04:07:01;23.80;;;16.47;;
36443;SDS011;24692;45.642;13.806;2023-03-21T04:09:27;19.80;;;15.90;;
36443;SDS011;24692;45.642;13.806;2023-03-21T04:11:54;21.57;;;16.30;;
36443;SDS011;24692;45.642;13.806;2023-03-21T04:14:21;22.93;;;16.20;;
36443;SDS011;24692;45.642;13.806;2023-03-21T04:16:47;23.37;;;16.77;;
36443;SDS011;24692;45.642;13.806;2023-03-21T04:19:14;18.87;;;15.53;;
36443;SDS011;24692;45.642;13.806;2023-03-21T04:21:40;23.97;;;17.47;;
36443;SDS011;24692;45.642;13.806;2023-03-21T04:24:06;22.10;;;17.23;;
36443;SDS011;24692;45.642;13.806;2023-03-21T04:26:32;26.23;;;18.10;;
36443;SDS011;24692;45.642;13.806;2023-03-21T04:28:59;22.03;;;17.20;;
36443;SDS011;24692;45.642;13.806;2023-03-21T04:31:27;26.43;;;18.50;;
36443;SDS011;24692;45.642;13.806;2023-03-21T04:34:02;22.97;;;17.30;;
36443;SDS011;24692;45.642;13.806;2023-03-21T04:36:36;23.60;;;17.43;;
36443;SDS011;24692;45.642;13.806;2023-03-21T04:39:10;20.43;;;15.97;;
36443;SDS011;24692;45.642;13.806;2023-03-21T04:41:43;26.07;;;17.60;;
36443;SDS011;24692;45.642;13.806;2023-03-21T04:44:10;26.67;;;18.13;;
36443;SDS011;24692;45.642;13.806;2023-03-21T04:46:37;27.37;;;17.53;;
36443;SDS011;24692;45.642;13.806;2023-03-21T04:49:03;22.47;;;17.63;;
36443;SDS011;24692;45.642;13.806;2023-03-21T04:51:29;23.97;;;17.90;;
36443;SDS011;24692;45.642;13.806;2023-03-21T04:53:54;21.20;;;17.50;;
36443;SDS011;24692;45.642;13.806;2023-03-21T04:56:24;20.63;;;16.47;;
36443;SDS011;24692;45.642;13.806;2023-03-21T04:58:56;23.13;;;17.63;;
36443;SDS011;24692;45.642;13.806;2023-03-21T05:01:22;24.10;;;18.20;;
36443;SDS011;24692;45.642;13.806;2023-03-21T05:03:50;24.03;;;17.33;;
36443;SDS011;24692;45.642;13.806;2023-03-21T05:06:16;25.77;;;18.60;;
36443;SDS011;24692;45.642;13.806;2023-03-21T05:08:42;26.07;;;17.23;;
36443;SDS011;24692;45.642;13.806;2023-03-21T05:11:07;25.30;;;17.83;;
36443;SDS011;24692;45.642;13.806;2023-03-21T05:13:33;26.20;;;17.57;;
36443;SDS011;24692;45.642;13.806;2023-03-21T05:15:59;23.83;;;18.17;;
36443;SDS011;24692;45.642;13.806;2023-03-21T05:18:24;25.13;;;18.03;;
36443;SDS011;24692;45.642;13.806;2023-03-21T05:20:51;21.17;;;16.03;;
36443;SDS011;24692;45.642;13.806;2023-03-21T05:23:18;21.87;;;16.47;;
36443;SDS011;24692;45.642;13.806;2023-03-21T05:25:44;23.57;;;17.40;;
36443;SDS011;24692;45.642;13.806;2023-03-21T05:28:10;21.90;;;15.70;;
36443;SDS011;24692;45.642;13.806;2023-03-21T05:30:35;24.77;;;15.77;;
36443;SDS011;24692;45.642;13.806;2023-03-21T05:33:01;19.03;;;14.83;;
36443;SDS011;24692;45.642;13.806;2023-03-21T05:35:27;19.63;;;13.93;;
36443;SDS011;24692;45.642;13.806;2023-03-21T05:37:53;19.70;;;13.87;;
36443;SDS011;24692;45.642;13.806;2023-03-21T05:40:19;18.40;;;14.50;;
36443;SDS011;24692;45.642;13.806;2023-03-21T05:42:45;19.20;;;13.40;;
36443;SDS011;24692;45.642;13.806;2023-03-21T05:45:11;18.10;;;13.67;;
36443;SDS011;24692;45.642;13.806;2023-03-21T05:47:38;16.37;;;13.67;;
36443;SDS011;24692;45.642;13.806;2023-03-21T05:50:03;17.20;;;13.60;;
36443;SDS011;24692;45.642;13.806;2023-03-21T05:52:30;18.87;;;13.93;;
36443;SDS011;24692;45.642;13.806;2023-03-21T05:54:56;18.63;;;13.53;;
36443;SDS011;24692;45.642;13.806;2023-03-21T05:57:22;16.87;;;13.10;;
36443;SDS011;24692;45.642;13.806;2023-03-21T05:59:48;16.87;;;13.07;;
36443;SDS011;24692;45.642;13.806;2023-03-21T06:02:13;16.73;;;13.37;;
36443;SDS011;24692;45.642;13.806;2023-03-21T06:04:39;18.50;;;14.03;;
36443;SDS011;24692;45.642;13.806;2023-03-21T06:07:05;21.27;;;14.77;;
36443;SDS011;24692;45.642;13.806;2023-03-21T06:09:30;19.67;;;13.90;;
36443;SDS011;24692;45.642;13.806;2023-03-21T06:11:57;17.97;;;14.07;;
36443;SDS011;24692;45.642;13.806;2023-03-21T06:14:23;19.27;;;13.67;;
36443;SDS011;24692;45.642;13.806;2023-03-21T06:16:49;18.97;;;14.27;;
36443;SDS011;24692;45.642;13.806;2023-03-21T06:19:17;18.73;;;14.40;;
36443;SDS011;24692;45.642;13.806;2023-03-21T06:21:44;22.47;;;15.73;;
36443;SDS011;24692;45.642;13.806;2023-03-21T06:24:09;23.80;;;15.97;;
36443;SDS011;24692;45.642;13.806;2023-03-21T06:26:35;21.00;;;15.17;;
36443;SDS011;24692;45.642;13.806;2023-03-21T06:29:01;24.33;;;17.17;;
36443;SDS011;24692;45.642;13.806;2023-03-21T06:31:27;20.57;;;15.70;;
36443;SDS011;24692;45.642;13.806;2023-03-21T06:33:52;25.60;;;18.30;;
36443;SDS011;24692;45.642;13.806;2023-03-21T06:36:18;23.93;;;17.80;;
36443;SDS011;24692;45.642;13.806;2023-03-21T06:38:44;23.10;;;17.37;;
36443;SDS011;24692;45.642;13.806;2023-03-21T06:41:11;25.60;;;17.13;;
36443;SDS011;24692;45.642;13.806;2023-03-21T06:43:37;20.20;;;17.20;;
36443;SDS011;24692;45.642;13.806;2023-03-21T06:46:03;22.67;;;17.03;;
36443;SDS011;24692;45.642;13.806;2023-03-21T06:48:29;24.00;;;17.13;;
36443;SDS011;24692;45.642;13.806;2023-03-21T06:50:55;24.63;;;17.53;;
36443;SDS011;24692;45.642;13.806;2023-03-21T06:53:22;26.27;;;19.77;;
36443;SDS011;24692;45.642;13.806;2023-03-21T06:55:51;25.73;;;18.90;;
36443;SDS011;24692;45.642;13.806;2023-03-21T06:58:17;28.77;;;18.67;;
36443;SDS011;24692;45.642;13.806;2023-03-21T07:00:45;27.83;;;19.07;;
36443;SDS011;24692;45.642;13.806;2023-03-21T07:03:11;24.97;;;15.97;;
36443;SDS011;24692;45.642;13.806;2023-03-21T07:05:37;25.63;;;16.07;;
36443;SDS011;24692;45.642;13.806;2023-03-21T07:08:04;21.30;;;14.67;;
36443;SDS011;24692;45.642;13.806;2023-03-21T07:10:37;20.53;;;16.73;;
36443;SDS011;24692;45.642;13.806;2023-03-21T07:13:05;23.07;;;14.20;;
36443;SDS011;24692;45.642;13.806;2023-03-21T07:15:30;20.00;;;13.27;;
36443;SDS011;24692;45.642;13.806;2023-03-21T07:17:58;19.13;;;12.93;;
36443;SDS011;24692;45.642;13.806;2023-03-21T07:20:24;18.10;;;12.50;;
36443;SDS011;24692;45.642;13.806;2023-03-21T07:22:51;17.50;;;11.73;;
36443;SDS011;24692;45.642;13.806;2023-03-21T07:25:18;16.67;;;11.93;;
36443;SDS011;24692;45.642;13.806;2023-03-21T07:27:44;14.32;;;11.02;;
36443;SDS011;24692;45.642;13.806;2023-03-21T07:30:11;14.70;;;11.98;;
36443;SDS011;24692;45.642;13.806;2023-03-21T07:32:37;13.00;;;11.20;;
36443;SDS011;24692;45.642;13.806;2023-03-21T07:35:03;17.05;;;13.02;;
36443;SDS011;24692;45.642;13.806;2023-03-21T07:37:30;17.17;;;15.38;;
36443;SDS011;24692;45.642;13.806;2023-03-21T07:39:56;15.68;;;13.00;;
36443;SDS011;24692;45.642;13.806;2023-03-21T07:42:22;16.13;;;13.05;;
36443;SDS011;24692;45.642;13.806;2023-03-21T07:44:47;14.43;;;12.43;;
36443;SDS011;24692;45.642;13.806;2023-03-21T07:47:14;13.07;;;11.18;;
36443;SDS011;24692;45.642;13.806;2023-03-21T07:49:40;19.80;;;13.88;;
36443;SDS011;24692;45.642;13.806;2023-03-21T07:52:09;19.83;;;15.20;;
36443;SDS011;24692;45.642;13.806;2023-03-21T07:54:35;22.00;;;13.85;;
36443;SDS011;24692;45.642;13.806;2023-03-21T07:57:00;26.52;;;18.15;;
36443;SDS011;24692;45.642;13.806;2023-03-21T07:59:26;21.75;;;18.70;;
36443;SDS011;24692;45.642;13.806;2023-03-21T08:01:52;23.15;;;18.48;;
36443;SDS011;24692;45.642;13.806;2023-03-21T08:04:17;24.40;;;20.08;;
36443;SDS011;24692;45.642;13.806;2023-03-21T08:06:43;23.08;;;20.58;;
36443;SDS011;24692;45.642;13.806;2023-03-21T08:09:08;24.75;;;19.02;;
36443;SDS011;24692;45.642;13.806;2023-03-21T08:11:34;25.30;;;20.60;;
36443;SDS011;24692;45.642;13.806;2023-03-21T08:14:00;19.15;;;15.48;;
36443;SDS011;24692;45.642;13.806;2023-03-21T08:16:26;23.17;;;18.80;;
36443;SDS011;24692;45.642;13.806;2023-03-21T08:18:52;23.73;;;18.20;;
36443;SDS011;24692;45.642;13.806;2023-03-21T08:21:18;19.98;;;16.52;;
36443;SDS011;24692;45.642;13.806;2023-03-21T08:23:43;20.90;;;17.17;;
36443;SDS011;24692;45.642;13.806;2023-03-21T08:26:09;24.02;;;19.95;;
36443;SDS011;24692;45.642;13.806;2023-03-21T08:28:35;20.80;;;18.27;;
36443;SDS011;24692;45.642;13.806;2023-03-21T08:31:07;23.80;;;19.40;;
36443;SDS011;24692;45.642;13.806;2023-03-21T08:33:34;25.25;;;19.83;;
36443;SDS011;24692;45.642;13.806;2023-03-21T08:36:01;23.67;;;17.20;;
36443;SDS011;24692;45.642;13.806;2023-03-21T08:38:27;24.67;;;16.20;;
36443;SDS011;24692;45.642;13.806;2023-03-21T08:40:54;21.77;;;14.73;;
36443;SDS011;24692;45.642;13.806;2023-03-21T08:43:20;24.95;;;17.50;;
36443;SDS011;24692;45.642;13.806;2023-03-21T08:45:46;23.77;;;15.05;;
36443;SDS011;24692;45.642;13.806;2023-03-21T08:48:12;20.27;;;17.90;;
36443;SDS011;24692;45.642;13.806;2023-03-21T08:50:37;23.20;;;15.27;;
36443;SDS011;24692;45.642;13.806;2023-03-21T08:53:03;18.10;;;14.73;;
36443;SDS011;24692;45.642;13.806;2023-03-21T08:55:29;18.63;;;16.13;;
36443;SDS011;24692;45.642;13.806;2023-03-21T08:57:59;17.73;;;15.82;;
36443;SDS011;24692;45.642;13.806;2023-03-21T09:00:27;16.77;;;13.55;;
36443;SDS011;24692;45.642;13.806;2023-03-21T09:02:53;17.67;;;15.32;;
36443;SDS011;24692;45.642;13.806;2023-03-21T09:05:20;17.55;;;14.27;;
36443;SDS011;24692;45.642;13.806;2023-03-21T09:07:48;17.55;;;13.80;;
36443;SDS011;24692;45.642;13.806;2023-03-21T09:10:18;17.13;;;14.10;;
36443;SDS011;24692;45.642;13.806;2023-03-21T09:12:46;17.75;;;12.98;;
36443;SDS011;24692;45.642;13.806;2023-03-21T09:15:13;19.70;;;14.32;;
36443;SDS011;24692;45.642;13.806;2023-03-21T09:17:39;19.83;;;13.25;;
36443;SDS011;24692;45.642;13.806;2023-03-21T09:20:11;22.73;;;14.18;;
36443;SDS011;24692;45.642;13.806;2023-03-21T09:22:43;13.57;;;12.00;;
36443;SDS011;24692;45.642;13.806;2023-03-21T09:25:10;16.60;;;12.73;;
36443;SDS011;24692;45.642;13.806;2023-03-21T09:27:37;15.90;;;12.70;;
36443;SDS011;24692;45.642;13.806;2023-03-21T09:30:03;17.90;;;13.38;;
36443;SDS011;24692;45.642;13.806;2023-03-21T09:32:31;14.35;;;11.57;;
36443;SDS011;24692;45.642;13.806;2023-03-21T09:34:58;20.55;;;12.32;;
36443;SDS011;24692;45.642;13.806;2023-03-21T09:37:23;16.92;;;13.75;;
36443;SDS011;24692;45.642;13.806;2023-03-21T09:39:49;17.63;;;12.88;;
36443;SDS011;24692;45.642;13.806;2023-03-21T09:47:48;15.00;;;11.02;;
36443;SDS011;24692;45.642;13.806;2023-03-21T09:50:50;18.05;;;12.57;;
36443;SDS011;24692;45.642;13.806;2023-03-21T09:53:20;14.68;;;11.43;;
36443;SDS011;24692;45.642;13.806;2023-03-21T09:55:49;16.02;;;12.57;;
36443;SDS011;24692;45.642;13.806;2023-03-21T09:58:34;14.18;;;11.93;;
36443;SDS011;24692;45.642;13.806;2023-03-21T10:01:17;16.65;;;12.65;;
36443;SDS011;24692;45.642;13.806;2023-03-21T10:03:59;14.27;;;10.77;;
36443;SDS011;24692;45.642;13.806;2023-03-21T10:06:28;17.63;;;11.77;;
36443;SDS011;24692;45.642;13.806;2023-03-21T10:09:03;12.63;;;10.57;;
36443;SDS011;24692;45.642;13.806;2023-03-21T10:14:11;13.90;;;10.98;;
36443;SDS011;24692;45.642;13.806;2023-03-21T10:16:43;12.07;;;10.70;;
36443;SDS011;24692;45.642;13.806;2023-03-21T10:19:13;16.08;;;11.23;;
36443;SDS011;24692;45.642;13.806;2023-03-21T10:21:41;11.90;;;9.88;;
36443;SDS011;24692;45.642;13.806;2023-03-21T10:24:14;10.68;;;9.18;;
36443;SDS011;24692;45.642;13.806;2023-03-21T10:26:42;13.00;;;8.65;;
36443;SDS011;24692;45.642;13.806;2023-03-21T10:29:09;8.98;;;8.02;;
36443;SDS011;24692;45.642;13.806;2023-03-21T10:31:38;11.13;;;7.35;;
36443;SDS011;24692;45.642;13.806;2023-03-21T10:34:08;10.40;;;8.90;;
36443;SDS011;24692;45.642;13.806;2023-03-21T10:36:41;9.32;;;8.20;;
36443;SDS011;24692;45.642;13.806;2023-03-21T10:39:13;10.43;;;7.90;;
36443;SDS011;24692;45.642;13.806;2023-03-21T10:41:45;20.33;;;8.68;;
36443;SDS011;24692;45.642;13.806;2023-03-21T10:44:12;9.45;;;7.75;;
36443;SDS011;24692;45.642;13.806;2023-03-21T10:49:23;10.68;;;7.95;;
36443;SDS011;24692;45.642;13.806;2023-03-21T10:51:51;9.88;;;7.60;;
36443;SDS011;24692;45.642;13.806;2023-03-21T10:54:20;12.70;;;8.63;;
36443;SDS011;24692;45.642;13.806;2023-03-21T10:57:08;12.05;;;8.15;;
36443;SDS011;24692;45.642;13.806;2023-03-21T11:02:16;9.93;;;7.20;;
36443;SDS011;24692;45.642;13.806;2023-03-21T11:04:45;10.32;;;6.72;;
36443;SDS011;24692;45.642;13.806;2023-03-21T11:07:13;9.60;;;7.38;;
36443;SDS011;24692;45.642;13.806;2023-03-21T11:09:44;9.70;;;7.43;;
36443;SDS011;24692;45.642;13.806;2023-03-21T11:12:27;8.55;;;7.20;;
36443;SDS011;24692;45.642;13.806;2023-03-21T11:14:54;11.23;;;8.18;;
36443;SDS011;24692;45.642;13.806;2023-03-21T11:17:28;15.63;;;8.95;;
36443;SDS011;24692;45.642;13.806;2023-03-21T11:19:57;13.00;;;9.30;;
36443;SDS011;24692;45.642;13.806;2023-03-21T11:22:36;12.23;;;10.00;;
36443;SDS011;24692;45.642;13.806;2023-03-21T11:25:04;11.93;;;10.00;;
36443;SDS011;24692;45.642;13.806;2023-03-21T11:27:36;13.30;;;11.63;;
36443;SDS011;24692;45.642;13.806;2023-03-21T11:30:19;16.38;;;11.68;;
36443;SDS011;24692;45.642;13.806;2023-03-21T11:32:53;13.82;;;12.18;;
36443;SDS011;24692;45.642;13.806;2023-03-21T11:35:22;12.95;;;11.55;;
36443;SDS011;24692;45.642;13.806;2023-03-21T11:37:53;12.48;;;10.80;;
36443;SDS011;24692;45.642;13.806;2023-03-21T11:40:21;12.30;;;11.02;;
36443;SDS011;24692;45.642;13.806;2023-03-21T11:42:52;15.68;;;11.50;;
36443;SDS011;24692;45.642;13.806;2023-03-21T11:45:24;15.05;;;11.25;;
36443;SDS011;24692;45.642;13.806;2023-03-21T11:47:56;13.68;;;10.15;;
36443;SDS011;24692;45.642;13.806;2023-03-21T11:50:30;14.75;;;10.40;;
36443;SDS011;24692;45.642;13.806;2023-03-21T12:04:52;12.93;;;10.48;;
36443;SDS011;24692;45.642;13.806;2023-03-21T12:06:59;13.57;;;12.13;;
36443;SDS011;24692;45.642;13.806;2023-03-21T12:39:45;15.38;;;13.25;;
36443;SDS011;24692;45.642;13.806;2023-03-21T12:44:51;14.80;;;13.30;;
36443;SDS011;24692;45.642;13.806;2023-03-21T12:47:25;15.85;;;13.30;;
36443;SDS011;24692;45.642;13.806;2023-03-21T12:49:56;16.42;;;14.63;;
36443;SDS011;24692;45.642;13.806;2023-03-21T12:52:29;20.65;;;15.93;;
36443;SDS011;24692;45.642;13.806;2023-03-21T12:57:39;18.88;;;14.00;;
36443;SDS011;24692;45.642;13.806;2023-03-21T13:00:54;15.75;;;13.05;;
36443;SDS011;24692;45.642;13.806;2023-03-21T13:03:38;18.00;;;15.50;;
36443;SDS011;24692;45.642;13.806;2023-03-21T13:06:01;20.27;;;16.00;;
36443;SDS011;24692;45.642;13.806;2023-03-21T13:11:18;15.15;;;12.85;;
36443;SDS011;24692;45.642;13.806;2023-03-21T13:13:48;12.60;;;10.68;;
36443;SDS011;24692;45.642;13.806;2023-03-21T13:16:27;17.92;;;12.73;;
36443;SDS011;24692;45.642;13.806;2023-03-21T13:19:10;10.88;;;9.77;;
36443;SDS011;24692;45.642;13.806;2023-03-21T13:22:06;10.05;;;8.60;;
36443;SDS011;24692;45.642;13.806;2023-03-21T13:29:52;17.23;;;14.98;;
36443;SDS011;24692;45.642;13.806;2023-03-21T13:35:14;17.42;;;13.65;;
36443;SDS011;24692;45.642;13.806;2023-03-21T13:37:57;19.25;;;14.10;;
36443;SDS011;24692;45.642;13.806;2023-03-21T13:40:44;14.18;;;12.68;;
36443;SDS011;24692;45.642;13.806;2023-03-21T13:48:46;15.50;;;11.40;;
36443;SDS011;24692;45.642;13.806;2023-03-21T13:59:11;9.88;;;7.07;;
36443;SDS011;24692;45.642;13.806;2023-03-21T14:01:58;14.45;;;10.93;;
36443;SDS011;24692;45.642;13.806;2023-03-21T14:04:39;11.00;;;7.97;;
36443;SDS011;24692;45.642;13.806;2023-03-21T14:07:09;10.50;;;9.40;;
36443;SDS011;24692;45.642;13.806;2023-03-21T14:09:44;11.82;;;8.07;;
36443;SDS011;24692;45.642;13.806;2023-03-21T14:12:16;11.90;;;9.27;;
36443;SDS011;24692;45.642;13.806;2023-03-21T14:14:52;9.20;;;8.15;;
36443;SDS011;24692;45.642;13.806;2023-03-21T14:18:04;10.32;;;9.10;;
36443;SDS011;24692;45.642;13.806;2023-03-21T14:20:31;9.07;;;8.02;;
36443;SDS011;24692;45.642;13.806;2023-03-21T14:23:02;10.00;;;8.05;;
36443;SDS011;24692;45.642;13.806;2023-03-21T14:25:33;8.70;;;6.80;;
36443;SDS011;24692;45.642;13.806;2023-03-21T14:28:02;12.40;;;9.02;;
36443;SDS011;24692;45.642;13.806;2023-03-21T14:30:35;9.27;;;7.70;;
36443;SDS011;24692;45.642;13.806;2023-03-21T14:35:58;8.30;;;6.63;;
36443;SDS011;24692;45.642;13.806;2023-03-21T14:38:31;8.35;;;7.30;;
36443;SDS011;24692;45.642;13.806;2023-03-21T14:40:59;8.27;;;6.95;;
36443;SDS011;24692;45.642;13.806;2023-03-21T14:43:25;11.35;;;9.02;;
36443;SDS011;24692;45.642;13.806;2023-03-21T14:45:52;11.00;;;8.18;;
36443;SDS011;24692;45.642;13.806;2023-03-21T14:48:20;10.60;;;8.38;;
36443;SDS011;24692;45.642;13.806;2023-03-21T14:50:59;13.38;;;8.80;;
36443;SDS011;24692;45.642;13.806;2023-03-21T14:53:29;12.98;;;9.32;;
36443;SDS011;24692;45.642;13.806;2023-03-21T14:56:01;7.03;;;6.10;;
36443;SDS011;24692;45.642;13.806;2023-03-21T14:58:30;7.80;;;6.78;;
36443;SDS011;24692;45.642;13.806;2023-03-21T15:00:59;11.10;;;8.05;;
36443;SDS011;24692;45.642;13.806;2023-03-21T15:03:28;12.88;;;9.00;;
36443;SDS011;24692;45.642;13.806;2023-03-21T15:05:55;12.27;;;10.18;;
36443;SDS011;24692;45.642;13.806;2023-03-21T15:08:26;11.48;;;9.85;;
36443;SDS011;24692;45.642;13.806;2023-03-21T15:16:15;12.63;;;9.40;;
36443;SDS011;24692;45.642;13.806;2023-03-21T15:18:41;10.75;;;8.90;;
36443;SDS011;24692;45.642;13.806;2023-03-21T15:24:32;8.95;;;7.65;;
36443;SDS011;24692;45.642;13.806;2023-03-21T15:27:03;10.27;;;7.97;;
36443;SDS011;24692;45.642;13.806;2023-03-21T15:29:36;6.80;;;6.20;;
36443;SDS011;24692;45.642;13.806;2023-03-21T15:32:05;7.60;;;5.95;;
36443;SDS011;24692;45.642;13.806;2023-03-21T15:34:36;8.02;;;6.43;;
36443;SDS011;24692;45.642;13.806;2023-03-21T15:37:06;11.85;;;8.20;;
36443;SDS011;24692;45.642;13.806;2023-03-21T15:39:38;11.75;;;10.55;;
36443;SDS011;24692;45.642;13.806;2023-03-21T15:42:05;13.25;;;10.57;;
36443;SDS011;24692;45.642;13.806;2023-03-21T15:44:52;13.10;;;11.13;;
36443;SDS011;24692;45.642;13.806;2023-03-21T15:47:39;13.00;;;10.45;;
36443;SDS011;24692;45.642;13.806;2023-03-21T15:50:55;11.43;;;9.20;;
36443;SDS011;24692;45.642;13.806;2023-03-21T15:53:06;13.50;;;10.82;;
36443;SDS011;24692;45.642;13.806;2023-03-21T15:55:45;13.43;;;11.93;;
36443;SDS011;24692;45.642;13.806;2023-03-21T15:58:18;17.45;;;14.05;;
36443;SDS011;24692;45.642;13.806;2023-03-21T16:00:47;16.85;;;13.82;;
36443;SDS011;24692;45.642;13.806;2023-03-21T16:03:16;20.73;;;15.63;;
36443;SDS011;24692;45.642;13.806;2023-03-21T16:08:26;13.73;;;12.27;;
36443;SDS011;24692;45.642;13.806;2023-03-21T16:10:52;19.93;;;15.20;;
36443;SDS011;24692;45.642;13.806;2023-03-21T16:13:18;17.33;;;14.10;;
36443;SDS011;24692;45.642;13.806;2023-03-21T16:15:44;19.58;;;15.90;;
36443;SDS011;24692;45.642;13.806;2023-03-21T16:18:11;23.15;;;16.52;;
36443;SDS011;24692;45.642;13.806;2023-03-21T16:20:39;17.97;;;15.57;;
36443;SDS011;24692;45.642;13.806;2023-03-21T16:23:13;21.70;;;16.00;;
36443;SDS011;24692;45.642;13.806;2023-03-21T16:25:40;18.50;;;15.20;;
36443;SDS011;24692;45.642;13.806;2023-03-21T16:28:14;15.30;;;13.60;;
36443;SDS011;24692;45.642;13.806;2023-03-21T16:30:40;15.93;;;12.90;;
36443;SDS011;24692;45.642;13.806;2023-03-21T16:33:09;16.00;;;12.03;;
36443;SDS011;24692;45.642;13.806;2023-03-21T16:35:36;15.97;;;12.00;;
36443;SDS011;24692;45.642;13.806;2023-03-21T16:38:01;16.95;;;13.23;;